CSUN Campus Station - National Weather Service Data Page - PST Time




                Date      RH     Dew  Seasonal     Current   Max Air   Min Air    Wind    Wind    Wind    Gust     Bar    Rain
                Time       %   Point      Rain    Air Temp     Since     Since   Speed    Gust     Dir     Dir   Press   Total
                               Deg F    Inches       Deg F  Midnight  Midnight     MPH     MPH                      mb  Inches
------------------------------------------------------------------------------------------------------------------------------
    06/28/2016 00:00      60    60.2      9.20        75.1      99.9      66.7       2       4      70      95    1012    0.00
    06/28/2016 00:10      61    60.3      9.20        74.8      75.1      74.5       2       4      72      65    1012    0.00
    06/28/2016 00:20      62    60.4      9.20        74.5      75.1      74.3       2       4      66      58    1012    0.00
    06/28/2016 00:30      62    60.5      9.20        74.3      75.1      74.0       2       4      43      33    1012    0.00
    06/28/2016 00:40      63    60.5      9.20        74.1      75.1      73.9       2       5      58      61    1012    0.00
    06/28/2016 00:50      64    60.7      9.20        74.0      75.1      73.8       2       4      68      61    1012    0.00
    06/28/2016 01:00      65    60.9      9.20        73.6      75.1      73.4       2       5      56      41    1012    0.00
    06/28/2016 01:10      66    61.0      9.20        73.4      75.1      73.1       2       4      62       9    1012    0.00
    06/28/2016 01:20      65    60.8      9.20        73.0      75.1      72.8       1       3      60      55    1012    0.00
    06/28/2016 01:30      65    60.5      9.20        72.9      75.1      72.7       2       4      54      23    1012    0.00
    06/28/2016 01:40      65    60.2      9.20        72.9      75.1      72.7       2       4      74      80    1012    0.00
    06/28/2016 01:50      65    60.2      9.20        72.7      75.1      72.4       1       3      71      82    1012    0.00
    06/28/2016 02:00      64    59.7      9.20        72.4      75.1      72.2       0       2      64      54    1012    0.00
    06/28/2016 02:10      62    59.2      9.20        72.4      75.1      72.2       1       3      44      61    1012    0.00
    06/28/2016 02:20      62    58.7      9.20        72.4      75.1      72.2       0       2      52      26    1012    0.00
    06/28/2016 02:30      62    58.8      9.20        72.5      75.1      72.2       0       3      81      73    1012    0.00
    06/28/2016 02:40      62    58.7      9.20        72.4      75.1      72.2       1       3      55      53    1013    0.00
    06/28/2016 02:50      61    58.1      9.20        72.3      75.1      72.1       1       3      47      33    1012    0.00
    06/28/2016 03:00      60    57.8      9.20        72.3      75.1      72.1       1       3      49      28    1012    0.00
    06/28/2016 03:10      60    57.6      9.20        72.4      75.1      72.1       1       3      55      56    1013    0.00
    06/28/2016 03:20      60    57.8      9.20        72.3      75.1      72.0       0       2      51      79    1013    0.00
    06/28/2016 03:30      62    57.6      9.20        71.9      75.1      71.4       0       2     148      51    1012    0.00
    06/28/2016 03:40      63    57.7      9.20        71.3      75.1      70.9       0       1     165     174    1012    0.00
    06/28/2016 03:50      65    57.9      9.20        70.8      75.1      70.5       0       0     141     148    1012    0.00
    06/28/2016 04:00      64    58.1      9.20        70.6      75.1      70.4       0       0       0     105    1012    0.00
    06/28/2016 04:10      65    58.1      9.20        70.5      75.1      70.2       0       0     167     162    1012    0.00
    06/28/2016 04:20      66    58.7      9.20        70.5      75.1      70.2       0       2     113      94    1013    0.00
    06/28/2016 04:30      67    58.9      9.20        70.6      75.1      70.2       1       3     148     159    1013    0.00
    06/28/2016 04:40      67    58.9      9.20        70.4      75.1      70.2       0       1     145     129    1013    0.00
    06/28/2016 04:50      67    58.9      9.20        70.3      75.1      70.1       0       0       0     142    1013    0.00
    06/28/2016 05:00      67    58.8      9.20        70.1      75.1      69.9       0       1     123     136    1013    0.00
    06/28/2016 05:10      67    59.1      9.20        70.3      75.1      69.9       0       2      81      87    1013    0.00
    06/28/2016 05:20      68    59.1      9.20        70.3      75.1      69.8       0       0       0      70    1013    0.00
    06/28/2016 05:30      69    59.2      9.20        70.0      75.1      69.8       0       0       0     161    1013    0.00
    06/28/2016 05:40      70    59.5      9.20        69.9      75.1      69.7       0       1     154     162    1013    0.00
    06/28/2016 05:50      69    60.0      9.20        70.4      75.1      69.7       0       2     159     151    1013    0.00
    06/28/2016 06:00      68    60.0      9.20        70.8      75.1      69.7       0       0       0     167    1013    0.00
    06/28/2016 06:10      68    60.1      9.20        71.2      75.1      69.7       0       0       0     167    1014    0.00
    06/28/2016 06:20      68    60.3      9.20        71.5      75.1      69.7       0       1     171     165    1014    0.00
    06/28/2016 06:30      66    60.2      9.20        71.9      75.1      69.7       0       1     181     167    1014    0.00
    06/28/2016 06:40      64    59.9      9.20        72.1      75.1      69.7       0       0     257     254    1014    0.00
    06/28/2016 06:50      64    59.7      9.20        72.4      75.1      69.7       0       6     231     255    1014    0.00
    06/28/2016 07:00      63    59.9      9.20        72.8      75.1      69.7       5       8     249     253    1013    0.00
    06/28/2016 07:10      61    59.4      9.20        73.1      75.1      69.7       6      10     262     240    1013    0.00
    06/28/2016 07:20      59    59.1      9.20        73.8      75.1      69.7       4      10     245     259    1013    0.00
    06/28/2016 07:30      58    59.2      9.20        74.6      75.1      69.7       3       6     230     237    1012    0.00
    06/28/2016 07:40      57    58.8      9.20        75.0      75.4      69.7       2       6     254      81    1012    0.00
    06/28/2016 07:50      58    59.0      9.20        75.4      75.7      69.7       5      10      88      68    1013    0.00
    06/28/2016 08:00      56    59.0      9.20        75.2      75.7      69.7       5       9      79      79    1013    0.00
    06/28/2016 08:10      54    58.5      9.20        76.1      76.9      69.7       5       9      63      79    1013    0.00
    06/28/2016 08:20      49    58.5      9.20        78.2      79.6      69.7       3       6      60      81    1013    0.00
    06/28/2016 08:30      42    58.3      9.20        80.7      82.0      69.7       3       7      89      88    1013    0.00
    06/28/2016 08:40      42    57.1      9.20        82.0      82.9      69.7       3       5      95     106    1014    0.00
    06/28/2016 08:50      42    57.0      9.20        83.1      83.4      69.7       4       7      74      64    1014    0.00
    06/28/2016 09:00      43    57.3      9.20        83.8      84.0      69.7       3       6     102      91    1014    0.00
    06/28/2016 09:10      40    57.8      9.20        84.3      84.6      69.7       3       6      91      81    1014    0.00
    06/28/2016 09:20      39    57.6      9.20        84.4      84.7      69.7       3       8      90      18    1013    0.00
    06/28/2016 09:30      40    57.1      9.20        84.6      85.0      69.7       4       8      80     110    1013    0.00
    06/28/2016 09:40      41    57.3      9.20        84.1      85.0      69.7       5       9      83      69    1013    0.00
    06/28/2016 09:50      40    58.3      9.20        84.7      85.2      69.7       4       9      79      31    1014    0.00
    06/28/2016 10:00      39    57.6      9.20        84.1      85.2      69.7       4       7      79     104    1014    0.00
    06/28/2016 10:10      37    55.6      9.20        84.4      85.2      69.7       3       6      82      88    1014    0.00
    06/28/2016 10:20      35    54.7      9.20        85.3      85.7      69.7       3       6     117     166    1014    0.00
    06/28/2016 10:30      36    54.8      9.20        85.4      85.7      69.7       3       6     104     128    1014    0.00
    06/28/2016 10:40      36    55.8      9.20        85.4      85.7      69.7       2       6      79      51    1014    0.00
    06/28/2016 10:50      36    55.9      9.20        84.9      85.7      69.7       3       6      70      74    1014    0.00
    06/28/2016 11:00      38    56.3      9.20        85.4      85.7      69.7       2       5      70      88    1014    0.00
    06/28/2016 11:10      37    56.8      9.20        85.5      86.2      69.7       1       4      25      50    1014    0.00
    06/28/2016 11:20      36    57.2      9.20        86.3      86.8      69.7       2       5      27      42    1014    0.00
    06/28/2016 11:30      35    56.4      9.20        86.8      87.2      69.7       1       3      28      63    1014    0.00
    06/28/2016 11:40      33    56.0      9.20        88.0      89.1      69.7       1       4      57      52    1013    0.00
    06/28/2016 11:50      32    56.0      9.20        89.6      91.1      69.7       2       5     149     172    1013    0.00
    06/28/2016 12:00      28    55.9      9.20        92.0      93.0      69.7       2       5     348      48    1013    0.00
    06/28/2016 12:10      29    55.1      9.20        92.9      93.2      69.7       3       7     181     157    1013    0.00
    06/28/2016 12:20      27    55.7      9.20        93.1      93.6      69.7       3       7     134     144    1013    0.00
    06/28/2016 12:30      26    55.2      9.20        93.6      94.7      69.7       3       7     128     165    1013    0.00
    06/28/2016 12:40      25    54.1      9.20        94.4      95.0      69.7       3       7     155     145    1013    0.00
    06/28/2016 12:50      25    54.4      9.20        94.6      95.0      69.7       3       7     183     161    1013    0.00
    06/28/2016 13:00      26    53.9      9.20        93.7      95.0      69.7       2       6     111     205    1013    0.00
    06/28/2016 13:10      28    55.0      9.20        94.6      95.3      69.7       3       9     115     132    1012    0.00
    06/28/2016 13:20      28    56.4      9.20        94.3      95.3      69.7       3       7     121     138    1012    0.00
    06/28/2016 13:30      26    56.4      9.20        94.4      95.7      69.7       5       9     127     130    1012    0.00
    06/28/2016 13:40      25    56.0      9.20        95.6      96.0      69.7       3       9     150     158    1012    0.00
    06/28/2016 13:50      25    54.8      9.20        95.7      96.1      69.7       3       6     206     150    1012    0.00
    06/28/2016 14:00      24    54.5      9.20        96.8      97.6      69.7       3       8     249     257    1012    0.00
    06/28/2016 14:10      25    54.3      9.20        97.5      98.0      69.7       2       5     284     346    1012    0.00
    06/28/2016 14:20      25    54.1      9.20        96.8      98.0      69.7       1       5     212     188    1011    0.00
    06/28/2016 14:30      25    54.7      9.20        96.6      98.0      69.7       3       7     294     281    1011    0.00
    06/28/2016 14:40      26    54.3      9.20        94.9      98.0      69.7       6      11     273     250    1011    0.00
    06/28/2016 14:50      26    54.3      9.20        94.2      98.0      69.7       4       8     281     250    1011    0.00
    06/28/2016 15:00      26    53.9      9.20        93.6      98.0      69.7       4       9     286     297    1011    0.00
    06/28/2016 15:10      27    53.9      9.20        93.1      98.0      69.7       4       7     287     281    1011    0.00
    06/28/2016 15:20      28    54.2      9.20        92.9      98.0      69.7       4       9     266     252    1011    0.00
    06/28/2016 15:30      27    54.1      9.20        92.5      98.0      69.7       4       8     255     255    1011    0.00
    06/28/2016 15:40      28    54.2      9.20        92.8      98.0      69.7       0       5     248     277    1011    0.00
    06/28/2016 15:50      31    55.4      9.20        91.6      98.0      69.7       4       7      90     115    1011    0.00
    06/28/2016 16:00      32    55.7      9.20        89.7      98.0      69.7       4       7     160     134    1011    0.00
    06/28/2016 16:10      32    55.7      9.20        88.9      98.0      69.7       5       8     153     171    1011    0.00
    06/28/2016 16:20      31    55.8      9.20        89.7      98.0      69.7       4       8      85      75    1011    0.00
    06/28/2016 16:30      34    55.7      9.20        89.8      98.0      69.7       1       2     207     194    1011    0.00
    06/28/2016 16:40      31    55.8      9.20        89.9      98.0      69.7       1       3     127     152    1011    0.00
    06/28/2016 16:50      32    55.5      9.20        90.3      98.0      69.7       2       6     129     158    1011    0.00
    06/28/2016 17:00      26    53.8      9.20        90.6      98.0      69.7       2       5     192     159    1011    0.00
    06/28/2016 17:10      34    55.3      9.20        89.8      98.0      69.7       2       5     120     152    1011    0.00
    06/28/2016 17:20      35    56.7      9.20        87.5      98.0      69.7       4       9     119      92    1011    0.00
    06/28/2016 17:30      37    56.5      9.20        86.4      98.0      69.7       3       8      94      70    1011    0.00
    06/28/2016 17:40      38    56.9      9.20        86.1      98.0      69.7       2       5     112      89    1011    0.00
    06/28/2016 17:50      39    57.7      9.20        85.8      98.0      69.7       2       4     136     172    1011    0.00
    06/28/2016 18:00      39    57.8      9.20        85.7      98.0      69.7       2       5     105     124    1011    0.00
    06/28/2016 18:10      40    57.9      9.20        85.2      98.0      69.7       2       5     106      95    1011    0.00
    06/28/2016 18:20      42    58.4      9.20        84.5      98.0      69.7       1       4     151     161    1011    0.00
    06/28/2016 18:30      42    58.9      9.20        84.4      98.0      69.7       2       3     160     152    1011    0.00
    06/28/2016 18:40      41    58.8      9.20        84.1      98.0      69.7       1       3     206     193    1011    0.00
    06/28/2016 18:50      37    56.9      9.20        84.8      98.0      69.7       3       7     248     254    1011    0.00
    06/28/2016 19:00      34    54.8      9.20        85.0      98.0      69.7       4       9     271     240    1011    0.00
    06/28/2016 19:10      41    54.0      9.20        84.3      98.0      69.7       3       6     207     196    1011    0.00
    06/28/2016 19:20      41    57.9      9.20        83.3      98.0      69.7       2       4     177     153    1011    0.00
    06/28/2016 19:30      36    54.0      9.20        82.7      98.0      69.7       1       4     191     198    1011    0.00
    06/28/2016 19:40      44    54.2      9.20        82.7      98.0      69.7       1       3     153     136    1011    0.00
    06/28/2016 19:50      45    58.7      9.20        82.2      98.0      69.7       0       2     133     141    1011    0.00
    06/28/2016 20:00      47    58.7      9.20        81.6      98.0      69.7       0       2     118     100    1011    0.00
    06/28/2016 20:10      49    59.5      9.20        81.1      98.0      69.7       0       2     123     101    1011    0.00
    06/28/2016 20:20      50    59.7      9.20        80.6      98.0      69.7       1       4     138     128    1011    0.00
    06/28/2016 20:30      50    60.0      9.20        80.1      98.0      69.7       2       5     103      93    1011    0.00
    06/28/2016 20:40      52    59.9      9.20        79.5      98.0      69.7       3       6      89      78    1012    0.00
    06/28/2016 20:50      54    59.9      9.20        78.4      98.0      69.7       4       7      79      88    1012    0.00
    06/28/2016 21:00      55    60.0      9.20        77.8      98.0      69.7       3       6      84      67    1012    0.00
    06/28/2016 21:10      56    60.0      9.20        77.2      98.0      69.7       3       5      84      90    1012    0.00
    06/28/2016 21:20      57    60.1      9.20        76.8      98.0      69.7       1       3      67      60    1012    0.00
    06/28/2016 21:30      57    60.2      9.20        76.8      98.0      69.7       2       6      92      91    1012    0.00
    06/28/2016 21:40      58    60.2      9.20        76.2      98.0      69.7       2       4     100      79    1012    0.00
    06/28/2016 21:50      59    59.9      9.20        75.5      98.0      69.7       2       6      91      98    1012    0.00
    06/28/2016 22:00      60    59.9      9.20        75.1      98.0      69.7       2       4      77      81    1012    0.00
    06/28/2016 22:10      60    59.9      9.20        74.7      98.0      69.7       2       4      77      54    1012    0.00
    06/28/2016 22:20      61    59.9      9.20        74.5      98.0      69.7       1       4      75      93    1012    0.00
    06/28/2016 22:30      61    60.0      9.20        74.3      98.0      69.7       2       5      74      90    1012    0.00
    06/28/2016 22:40      62    60.0      9.20        73.9      98.0      69.7       3       5      80      81    1012    0.00
    06/28/2016 22:50      63    60.1      9.20        73.7      98.0      69.7       3       5      73      73    1012    0.00
    06/28/2016 23:00      64    60.1      9.20        73.2      98.0      69.7       2       4      53      60    1012    0.00
    06/28/2016 23:10      64    60.0      9.20        72.9      98.0      69.7       3       5      59      83    1012    0.00
    06/28/2016 23:20      64    59.9      9.20        72.6      98.0      69.7       2       4      51      21    1012    0.00
    06/28/2016 23:30      64    59.8      9.20        72.6      98.0      69.7       1       3      47      29    1012    0.00
    06/28/2016 23:40      63    59.6      9.20        72.7      98.0      69.7       1       4      51      73    1012    0.00
    06/28/2016 23:50      62    59.1      9.20        72.6      98.0      69.7       2       4      54      45    1012    0.00
    06/29/2016 00:00      62    58.5      9.20        72.5      98.0      69.7       2       4      51      53    1012    0.00
    06/29/2016 00:10      62    58.4      9.20        72.2      72.5      71.9       3       6      69      74    1012    0.00
    06/29/2016 00:20      63    58.5      9.20        71.8      72.5      71.5       2       4      64      35    1012    0.00
    06/29/2016 00:30      63    58.5      9.20        71.5      72.5      71.3       1       4      80      65    1012    0.00
    06/29/2016 00:40      64    58.4      9.20        71.3      72.5      71.1       1       4      55      49    1012    0.00
    06/29/2016 00:50      63    58.2      9.20        71.2      72.5      71.0       1       3      56      73    1012    0.00
    06/29/2016 01:00      63    58.0      9.20        71.0      72.5      70.8       0       2      66      51    1012    0.00
    06/29/2016 01:10      65    58.0      9.20        70.7      72.5      70.3       0       0      93      91    1012    0.00
    06/29/2016 01:20      66    58.1      9.20        70.1      72.5      69.7       0       1     176     177    1012    0.00
    06/29/2016 01:30      67    58.1      9.20        69.7      72.5      69.5       0       0       0     169    1012    0.00
    06/29/2016 01:40      68    58.5      9.20        69.5      72.5      69.2       0       1     158     146    1012    0.00
    06/29/2016 01:50      68    58.7      9.20        69.5      72.5      69.2       1       2     140     134    1012    0.00
    06/29/2016 02:00      69    58.8      9.20        69.5      72.5      69.2       1       2     109      82    1012    0.00
    06/29/2016 02:10      68    58.8      9.20        69.8      72.5      69.2       0       2      72      72    1012    0.00
    06/29/2016 02:20      68    58.8      9.20        69.8      72.5      69.2       1       3      72      88    1011    0.00
    06/29/2016 02:30      68    58.8      9.20        69.8      72.5      69.2       0       2      66      43    1011    0.00
    06/29/2016 02:40      69    58.8      9.20        69.6      72.5      69.2       1       3      85      63    1011    0.00
    06/29/2016 02:50      70    58.9      9.20        69.4      72.5      69.1       0       1     102      91    1011    0.00
    06/29/2016 03:00      71    59.1      9.20        69.1      72.5      69.0       0       2      79      79    1011    0.00
    06/29/2016 03:10      71    59.4      9.20        69.0      72.5      68.9       0       3      74      61    1012    0.00
    06/29/2016 03:20      72    59.5      9.20        68.9      72.5      68.7       0       2      77      84    1012    0.00
    06/29/2016 03:30      72    59.4      9.20        68.7      72.5      68.4       0       3      43      41    1012    0.00
    06/29/2016 03:40      73    59.4      9.20        68.5      72.5      68.3       0       0      33      29    1012    0.00
    06/29/2016 03:50      73    59.4      9.20        68.4      72.5      68.1       0       2      45      39    1012    0.00
    06/29/2016 04:00      73    59.3      9.20        68.3      72.5      68.1       0       2      79      83    1012    0.00
    06/29/2016 04:10      73    59.3      9.20        68.3      72.5      68.0       0       1      76      69    1012    0.00
    06/29/2016 04:20      74    59.5      9.20        68.2      72.5      68.0       0       2      62      62    1012    0.00
    06/29/2016 04:30      74    59.4      9.20        68.0      72.5      67.8       0       1     104      80    1012    0.00
    06/29/2016 04:40      75    59.5      9.20        67.8      72.5      67.7       1       3      82      76    1012    0.00
    06/29/2016 04:50      75    59.6      9.20        67.8      72.5      67.5       1       3      77      73    1012    0.00
    06/29/2016 05:00      76    59.6      9.20        67.6      72.5      67.4       0       2      69      71    1012    0.00
    06/29/2016 05:10      76    59.6      9.20        67.5      72.5      67.3       1       3      50      55    1012    0.00
    06/29/2016 05:20      76    59.7      9.20        67.6      72.5      67.3       2       3      42      50    1012    0.00
    06/29/2016 05:30      75    59.7      9.20        67.7      72.5      67.3       0       2      40      56    1012    0.00
    06/29/2016 05:40      75    59.8      9.20        68.0      72.5      67.3       0       2      61      66    1012    0.00
    06/29/2016 05:50      75    59.9      9.20        68.2      72.5      67.3       0       3      85      92    1012    0.00
    06/29/2016 06:00      73    60.1      9.20        68.7      72.5      67.3       0       2     142     137    1012    0.00
    06/29/2016 06:10      70    60.0      9.20        69.7      72.5      67.3       0       2      78      64    1012    0.00
    06/29/2016 06:20      69    59.9      9.20        70.4      72.5      67.3       0       2     194     187    1012    0.00
    06/29/2016 06:30      66    59.9      9.20        71.2      72.5      67.3       0       3     188     169    1012    0.00
    06/29/2016 06:40      64    60.0      9.20        72.0      72.8      67.3       0       2     135     145    1012    0.00
    06/29/2016 06:50      64    59.7      9.20        72.8      73.3      67.3       0       3     154     166    1012    0.00
    06/29/2016 07:00      62    59.3      9.20        72.5      73.3      67.3       0       2     193     188    1012    0.00
    06/29/2016 07:10      63    59.4      9.20        73.1      73.4      67.3       0       2     167     174    1012    0.00
    06/29/2016 07:20      60    59.5      9.20        73.6      74.2      67.3       0       2     162     147    1012    0.00
    06/29/2016 07:30      58    59.5      9.20        74.5      75.5      67.3       0       0     204     216    1012    0.00
    06/29/2016 07:40      56    59.7      9.20        75.9      76.8      67.3       0       3     234     254    1012    0.00
    06/29/2016 07:50      55    59.6      9.20        76.6      77.3      67.3       0       3     151     157    1012    0.00
    06/29/2016 08:00      55    59.6      9.20        77.2      77.6      67.3       2       4     169     152    1012    0.00
    06/29/2016 08:10      51    59.5      9.20        78.3      79.0      67.3       1       4      86      97    1012    0.00
    06/29/2016 08:20      46    58.6      9.20        79.4      80.5      67.3       1       3      60      74    1012    0.00
    06/29/2016 08:30      46    57.6      9.20        80.1      80.5      67.3       2       6     147     138    1012    0.00
    06/29/2016 08:40      46    58.0      9.20        80.3      81.2      67.3       2       4      89      55    1012    0.00
    06/29/2016 08:50      41    57.3      9.20        81.9      82.5      67.3       2       5      95      88    1012    0.00
    06/29/2016 09:00      42    56.5      9.20        82.8      83.3      67.3       2       5     133     156    1012    0.00
    06/29/2016 09:10      40    57.0      9.20        82.4      83.3      67.3       1       6     179     113    1012    0.00
    06/29/2016 09:20      36    55.8      9.20        83.6      84.6      67.3       2       5     117      93    1012    0.00
    06/29/2016 09:30      35    54.5      9.20        84.6      85.1      67.3       2       4     101      50    1012    0.00
    06/29/2016 09:40      39    54.9      9.20        84.4      85.2      67.3       2       5     124     117    1012    0.00
    06/29/2016 09:50      36    55.1      9.20        84.7      85.2      67.3       1       4      87      54    1012    0.00
    06/29/2016 10:00      33    54.9      9.20        86.1      87.4      67.3       2       5     128     132    1012    0.00
    06/29/2016 10:10      34    55.8      9.20        87.2      88.0      67.3       3       9     138     157    1012    0.00
    06/29/2016 10:20      34    55.5      9.20        88.0      88.4      67.3       3       7     123     143    1012    0.00
    06/29/2016 10:30      33    55.4      9.20        88.1      88.4      67.3       4       8      68      58    1012    0.00
    06/29/2016 10:40      32    55.6      9.20        88.7      89.4      67.3       2       5      99     100    1012    0.00
    06/29/2016 10:50      30    55.6      9.20        89.9      90.4      67.3       2       5      78      96    1011    0.00
    06/29/2016 11:00      30    54.8      9.20        89.7      90.4      67.3       2       6     150     109    1011    0.00
    06/29/2016 11:10      28    54.0      9.20        90.6      91.3      67.3       2       6     148     145    1011    0.00
    06/29/2016 11:20      28    54.1      9.20        91.5      92.1      67.3       3       7      96      84    1011    0.00
    06/29/2016 11:30      28    54.5      9.20        92.0      93.0      67.3       3       6      89     102    1011    0.00
    06/29/2016 11:40      29    54.8      9.20        92.0      93.0      67.3       2      10     167     145    1011    0.00
    06/29/2016 11:50      28    55.6      9.20        92.8      93.9      67.3       2       6     104      66    1011    0.00
    06/29/2016 12:00      29    55.1      9.20        93.3      94.2      67.3       2       5     125     135    1011    0.00
    06/29/2016 12:10      29    56.1      9.20        93.7      94.2      67.3       4       7     111      98    1011    0.00
    06/29/2016 12:20      28    56.3      9.20        94.0      94.4      67.3       4      13     101      77    1011    0.00
    06/29/2016 12:30      30    57.6      9.20        94.1      94.4      67.3       5      10     117     126    1011    0.00
    06/29/2016 12:40      30    57.7      9.20        93.4      94.4      67.3       5      12     126     148    1011    0.00
    06/29/2016 12:50      30    56.9      9.20        93.9      94.4      67.3       5      10     139     140    1011    0.00
    06/29/2016 13:00      27    56.1      9.20        93.7      94.4      67.3       5      11     138     134    1011    0.00
    06/29/2016 13:10      27    55.1      9.20        93.7      94.4      67.3       4       9     118      89    1010    0.00
    06/29/2016 13:20      28    54.5      9.20        93.6      94.4      67.3       5      11     134     151    1010    0.00
    06/29/2016 13:30      26    55.5      9.20        94.2      95.4      67.3       5       9     138     134    1010    0.00
    06/29/2016 13:40      26    55.4      9.20        95.1      96.0      67.3       4       9     129     158    1010    0.00
    06/29/2016 13:50      27    55.3      9.20        94.9      96.0      67.3       4       8     119      90    1010    0.00
    06/29/2016 14:00      27    55.5      9.20        94.4      96.0      67.3       5      11     138      94    1010    0.00
    06/29/2016 14:10      26    55.2      9.20        94.3      96.0      67.3       5      10     108      87    1010    0.00
    06/29/2016 14:20      26    54.9      9.20        94.6      96.0      67.3       4       9     112      92    1010    0.00
    06/29/2016 14:30      26    54.8      9.20        94.3      96.0      67.3       6      13     132     156    1010    0.00
    06/29/2016 14:40      27    55.1      9.20        94.8      96.0      67.3       4      10     115      89    1010    0.00
    06/29/2016 14:50      27    55.0      9.20        94.6      96.0      67.3       5      12     124     158    1010    0.00
    06/29/2016 15:00      25    55.1      9.20        95.4      96.1      67.3       4      10     142     173    1009    0.00
    06/29/2016 15:10      25    54.3      9.20        95.5      96.2      67.3       5       9     129     147    1009    0.00
    06/29/2016 15:20      24    53.4      9.20        94.8      96.2      67.3       4       8     121     128    1009    0.00
    06/29/2016 15:30      25    52.8      9.20        95.2      96.2      67.3       4       8      95      90    1009    0.00
    06/29/2016 15:40      25    52.8      9.20        95.0      96.2      67.3       3       7     106      91    1009    0.00
    06/29/2016 15:50      24    52.8      9.20        95.2      96.2      67.3       4       9     108      84    1009    0.00
    06/29/2016 16:00      24    52.5      9.20        94.7      96.2      67.3       4       8     107     100    1009    0.00
    06/29/2016 16:10      24    52.6      9.20        94.7      96.2      67.3       3       7     100     101    1009    0.00
    06/29/2016 16:20      24    52.7      9.20        95.0      96.2      67.3       3       9     121      79    1009    0.00
    06/29/2016 16:30      24    52.0      9.20        94.8      96.2      67.3       5      10      88      88    1009    0.00
    06/29/2016 16:40      24    51.2      9.20        94.1      96.2      67.3       4       8      90      84    1009    0.00
    06/29/2016 16:50      24    51.6      9.20        93.6      96.2      67.3       5      10      90      86    1009    0.00
    06/29/2016 17:00      24    51.2      9.20        93.3      96.2      67.3       4      10     104      80    1009    0.00
    06/29/2016 17:10      24    50.5      9.20        92.4      96.2      67.3       4      10      86      83    1009    0.00
    06/29/2016 17:20      25    50.3      9.20        91.6      96.2      67.3       5      10      84      51    1009    0.00
    06/29/2016 17:30      27    50.6      9.20        90.0      96.2      67.3       5      10      74      71    1009    0.00
    06/29/2016 17:40      26    50.5      9.20        89.1      96.2      67.3       3       8      94      67    1009    0.00
    06/29/2016 17:50      27    49.7      9.20        88.3      96.2      67.3       4       7      79      86    1009    0.00
    06/29/2016 18:00      27    49.9      9.20        87.6      96.2      67.3       5       9      84      81    1009    0.00
    06/29/2016 18:10      28    49.3      9.20        86.7      96.2      67.3       5       9      82      90    1009    0.00
    06/29/2016 18:20      30    50.0      9.20        85.9      96.2      67.3       4       8      94      95    1009    0.00
    06/29/2016 18:30      32    51.1      9.20        85.3      96.2      67.3       4       7      91      93    1009    0.00
    06/29/2016 18:40      32    52.0      9.20        84.8      96.2      67.3       3       7      77      49    1009    0.00
    06/29/2016 18:50      33    51.2      9.20        84.0      96.2      67.3       4       8      79      86    1009    0.00
    06/29/2016 19:00      35    52.7      9.20        83.5      96.2      67.3       3       6      90      76    1009    0.00
    06/29/2016 19:10      38    53.8      9.20        82.9      96.2      67.3       2       6      93     110    1009    0.00
    06/29/2016 19:20      40    54.7      9.20        81.9      96.2      67.3       3       6      92      94    1009    0.00
    06/29/2016 19:30      42    55.6      9.20        81.2      96.2      67.3       4       7      64      61    1009    0.00
    06/29/2016 19:40      43    55.8      9.20        80.6      96.2      67.3       4       7      60      32    1009    0.00
    06/29/2016 19:50      43    55.9      9.20        79.9      96.2      67.3       4       6      70      60    1009    0.00
    06/29/2016 20:00      44    55.0      9.20        79.3      96.2      67.3       4       7      68      85    1010    0.00
    06/29/2016 20:10      38    52.6      9.20        78.7      96.2      67.3       4       8      60      56    1010    0.00
    06/29/2016 20:20      38    50.1      9.20        78.1      96.2      67.3       4       8      67      58    1010    0.00
    06/29/2016 20:30      39    50.6      9.20        77.5      96.2      67.3       4       8      62      69    1010    0.00
    06/29/2016 20:40      37    49.8      9.20        77.1      96.2      67.3       3       8      55      55    1010    0.00
    06/29/2016 20:50      36    48.0      9.20        77.0      96.2      67.3       4       7      60      86    1010    0.00
    06/29/2016 21:00      36    47.7      9.20        76.7      96.2      67.3       3       6      54      65    1010    0.00
    06/29/2016 21:10      39    48.7      9.20        76.3      96.2      67.3       4       6      49      31    1010    0.00
    06/29/2016 21:20      39    49.1      9.20        75.9      96.2      67.3       3       6      69      46    1010    0.00
    06/29/2016 21:30      42    50.3      9.20        75.7      96.2      67.3       3       6      61      57    1010    0.00
    06/29/2016 21:40      43    51.0      9.20        75.5      96.2      67.3       3       5      58      62    1010    0.00
    06/29/2016 21:50      45    52.0      9.20        75.4      96.2      67.3       2       5      69      83    1010    0.00
    06/29/2016 22:00      46    52.5      9.20        75.0      96.2      67.3       3       7      72      69    1011    0.00
    06/29/2016 22:10      47    52.9      9.20        74.8      96.2      67.3       2       5      77      62    1011    0.00
    06/29/2016 22:20      49    53.7      9.20        74.5      96.2      67.3       2       5      69      65    1011    0.00
    06/29/2016 22:30      51    54.5      9.20        74.2      96.2      67.3       3       6      76      95    1011    0.00
    06/29/2016 22:40      52    55.0      9.20        74.0      96.2      67.3       3       6      79      62    1011    0.00
    06/29/2016 22:50      53    55.3      9.20        73.8      96.2      67.3       3       6      82      69    1011    0.00
    06/29/2016 23:00      53    55.3      9.20        73.4      96.2      67.3       2       5      83      61    1011    0.00
    06/29/2016 23:10      54    55.4      9.20        73.1      96.2      67.3       3       5      79      74    1011    0.00
    06/29/2016 23:20      56    55.6      9.20        72.8      96.2      67.3       2       5      99      82    1011    0.00
    06/29/2016 23:30      57    55.9      9.20        72.3      96.2      67.3       0       3     117      88    1011    0.00
    06/29/2016 23:40      60    56.2      9.20        71.4      96.2      67.3       2       5     141     161    1011    0.00
    06/29/2016 23:50      60    56.5      9.20        71.0      96.2      67.3       0       3     124     144    1010    0.00
    06/30/2016 00:00      61    56.5      9.20        70.7      96.2      67.3       0       3     139     128    1010    0.00
    06/30/2016 00:10      61    56.6      9.20        70.4      70.6      70.2       0       3     122      87    1010    0.00
    06/30/2016 00:20      62    56.6      9.20        70.4      70.6      70.2       0       4      97      92    1010    0.00
    06/30/2016 00:30      62    56.7      9.20        70.5      70.6      70.2       0       2      80      85    1010    0.00
    06/30/2016 00:40      62    56.7      9.20        70.2      70.6      70.0       0       2      89      77    1010    0.00
    06/30/2016 00:50      63    56.5      9.20        69.7      70.6      69.5       0       1      92     100    1010    0.00
    06/30/2016 01:00      64    56.6      9.20        69.5      70.6      69.2       0       0       0      93    1010    0.00
    06/30/2016 01:10      65    56.6      9.20        69.2      70.6      68.8       0       0      73      75    1010    0.00
    06/30/2016 01:20      65    56.8      9.20        69.0      70.6      68.8       0       2      89      83    1010    0.00
    06/30/2016 01:30      66    56.9      9.20        68.8      70.6      68.6       0       2     149     170    1010    0.00
    06/30/2016 01:40      66    57.2      9.20        69.0      70.6      68.6       0       2     145     137    1010    0.00
    06/30/2016 01:50      67    57.3      9.20        68.9      70.6      68.6       0       2     151     140    1010    0.00
    06/30/2016 02:00      68    57.5      9.20        68.7      70.6      68.5       1       2     136     156    1010    0.00
    06/30/2016 02:10      68    57.6      9.20        68.6      70.6      68.3       0       2     143     158    1010    0.00
    06/30/2016 02:20      69    57.6      9.20        68.4      70.6      68.2       0       2     129     116    1010    0.00
    06/30/2016 02:30      69    57.8      9.20        68.3      70.6      68.1       1       3      70      73    1010    0.00
    06/30/2016 02:40      69    58.0      9.20        68.3      70.6      68.1       0       2      89      76    1010    0.00
    06/30/2016 02:50      70    58.1      9.20        68.2      70.6      68.0       0       3      94      93    1010    0.00
    06/30/2016 03:00      71    58.3      9.20        68.1      70.6      68.0       2       3      79      77    1010    0.00
    06/30/2016 03:10      72    58.4      9.20        67.9      70.6      67.6       0       4      77      60    1010    0.00
    06/30/2016 03:20      73    58.6      9.20        67.7      70.6      67.6       1       3      67      41    1010    0.00
    06/30/2016 03:30      73    58.6      9.20        67.6      70.6      67.5       0       3      79      85    1010    0.00
    06/30/2016 03:40      73    58.6      9.20        67.6      70.6      67.4       0       2      73      87    1010    0.00
    06/30/2016 03:50      73    58.6      9.20        67.4      70.6      67.2       1       3      75      77    1010    0.00
    06/30/2016 04:00      74    58.5      9.20        67.2      70.6      66.7       1       2     143     131    1010    0.00
    06/30/2016 04:10      75    58.6      9.20        66.8      70.6      66.7       0       2     103      91    1010    0.00
    06/30/2016 04:20      76    58.8      9.20        66.8      70.6      66.6       0       3      85      84    1010    0.00
    06/30/2016 04:30      76    58.9      9.20        66.7      70.6      66.5       1       3      79      86    1010    0.00
    06/30/2016 04:40      76    58.9      9.20        66.6      70.6      66.4       2       3      71      51    1010    0.00
    06/30/2016 04:50      77    59.0      9.20        66.5      70.6      66.3       2       3      74      50    1010    0.00
    06/30/2016 05:00      77    59.0      9.20        66.4      70.6      66.2       2       3      69      51    1010    0.00
    06/30/2016 05:10      78    59.1      9.20        66.3      70.6      66.1       2       4      66      66    1010    0.00
    06/30/2016 05:20      78    59.2      9.20        66.2      70.6      66.0       2       4      82      83    1010    0.00
    06/30/2016 05:30      78    59.1      9.20        66.2      70.6      66.0       2       4      82     102    1010    0.00
    06/30/2016 05:40      78    59.1      9.20        66.1      70.6      65.9       2       4      76      59    1010    0.00
    06/30/2016 05:50      78    59.2      9.20        66.1      70.6      65.9       0       2      60      30    1010    0.00
    06/30/2016 06:00      76    59.4      9.20        66.7      70.6      65.9       1       3      73      45    1011    0.00
    06/30/2016 06:10      74    59.2      9.20        67.7      70.6      65.9       2       4      77      55    1011    0.00
    06/30/2016 06:20      73    59.2      9.20        68.0      70.6      65.9       2       3      74      76    1011    0.00
    06/30/2016 06:30      71    59.3      9.20        68.6      70.6      65.9       2       4      89      72    1011    0.00
    06/30/2016 06:40      70    59.1      9.20        69.1      70.6      65.9       1       4      77      91    1011    0.00
    06/30/2016 06:50      70    59.2      9.20        69.1      70.6      65.9       2       5     115     107    1011    0.00
    06/30/2016 07:00      67    59.3      9.20        70.1      70.7      65.9       0       3     104      82    1011    0.00
    06/30/2016 07:10      67    59.2      9.20        70.9      71.4      65.9       1       3     132     149    1011    0.00
    06/30/2016 07:20      65    59.3      9.20        71.3      71.7      65.9       1       4      91      98    1011    0.00
    06/30/2016 07:30      64    59.2      9.20        71.7      72.2      65.9       2       4      96      94    1011    0.00
    06/30/2016 07:40      64    59.2      9.20        71.9      72.4      65.9       2       5      89      94    1011    0.00
    06/30/2016 07:50      59    59.2      9.20        73.5      74.5      65.9       0       3      59      61    1011    0.00
    06/30/2016 08:00      57    58.8      9.20        75.2      75.9      65.9       0       3      86     176    1011    0.00
    06/30/2016 08:10      59    59.2      9.20        75.1      75.9      65.9       1       4     179     183    1011    0.00
    06/30/2016 08:20      55    58.9      9.20        75.3      75.9      65.9       1       4     229     188    1011    0.00
    06/30/2016 08:30      53    58.8      9.20        76.5      77.0      65.9       0       3     193     145    1011    0.00
    06/30/2016 08:40      50    59.0      9.20        77.8      78.5      65.9       1       3     200     208    1011    0.00
    06/30/2016 08:50      50    58.5      9.20        78.8      79.3      65.9       2       5     175     143    1011    0.00
    06/30/2016 09:00      49    58.5      9.20        79.0      79.5      65.9       2       5     132     178    1011    0.00
    06/30/2016 09:10      45    58.3      9.20        80.1      80.7      65.9       2       5     133     130    1011    0.00
    06/30/2016 09:20      46    57.8      9.20        80.3      80.9      65.9       3       7     144     158    1011    0.00
    06/30/2016 09:30      45    57.9      9.20        80.9      81.3      65.9       2       5      92     141    1011    0.00
    06/30/2016 09:40      44    58.0      9.20        81.4      82.2      65.9       3       7     137     159    1011    0.00
    06/30/2016 09:50      43    57.7      9.20        82.2      82.9      65.9       2       6     141     157    1011    0.00
    06/30/2016 10:00      42    58.1      9.20        82.5      83.1      65.9       4      10     160     178    1011    0.00
    06/30/2016 10:10      41    57.5      9.20        83.3      83.8      65.9       3       7     117      83    1011    0.00
    06/30/2016 10:20      41    58.4      9.20        84.0      84.9      65.9       4       9     145     143    1011    0.00
    06/30/2016 10:30      41    58.7      9.20        84.6      85.2      65.9       5      10     142     160    1011    0.00
    06/30/2016 10:40      39    58.5      9.20        85.6      86.2      65.9       4       8     139     187    1011    0.00
    06/30/2016 10:50      40    58.1      9.20        85.7      86.4      65.9       4       8     139     143    1011    0.00
    06/30/2016 11:00      41    57.6      9.20        86.1      86.6      65.9       3       7     116      81    1011    0.00
    06/30/2016 11:10      40    59.2      9.20        86.0      86.9      65.9       4       8     171     167    1010    0.00
    06/30/2016 11:20      38    59.0      9.20        86.6      87.1      65.9       4       7     118     153    1010    0.00
    06/30/2016 11:30      39    58.5      9.20        87.4      88.0      65.9       3       8     118      96    1010    0.00
    06/30/2016 11:40      36    58.7      9.20        87.7      88.4      65.9       3       7     114     112    1010    0.00
    06/30/2016 11:50      38    58.4      9.20        88.2      88.8      65.9       3       8     103     130    1010    0.00
    06/30/2016 12:00      39    59.1      9.20        87.1      88.8      65.9       3       7     108     143    1010    0.00
    06/30/2016 12:10      37    59.5      9.20        88.5      89.1      65.9       4       8     143     151    1010    0.00
    06/30/2016 12:20      38    59.1      9.20        87.7      89.1      65.9       4       9     129     144    1010    0.00
    06/30/2016 12:30      35    59.2      9.20        88.8      90.1      65.9       4      10     118     135    1010    0.00
    06/30/2016 12:40      35    58.9      9.20        89.7      90.3      65.9       5      11     118      89    1010    0.00
    06/30/2016 12:50      35    58.9      9.20        89.1      90.3      65.9       5      10     119      91    1010    0.00
    06/30/2016 13:00      34    58.7      9.20        89.3      90.3      65.9       5      13      91      79    1010    0.00
    06/30/2016 13:10      34    58.7      9.20        89.6      90.3      65.9       5      11     111      98    1010    0.00
    06/30/2016 13:20      36    58.5      9.20        89.5      90.4      65.9       6      11     110     138    1010    0.00
    06/30/2016 13:30      33    58.0      9.20        89.2      90.4      65.9       6      11      95      64    1010    0.00
    06/30/2016 13:40      33    57.0      9.20        89.9      90.5      65.9       5      12     101      83    1009    0.00
    06/30/2016 13:50      32    56.5      9.20        90.3      90.7      65.9       5      13      99      84    1009    0.00
    06/30/2016 14:00      30    55.3      9.20        90.9      91.4      65.9       4       9     111      92    1009    0.00
    06/30/2016 14:10      30    53.9      9.20        90.0      91.4      65.9       6      13      97      95    1009    0.00
    06/30/2016 14:20      29    53.2      9.20        89.6      91.4      65.9       6      12      94      92    1009    0.00
    06/30/2016 14:30      27    52.3      9.20        90.0      91.4      65.9       6      11      90      80    1009    0.00
    06/30/2016 14:40      28    52.7      9.20        89.7      91.4      65.9       5      10     103      78    1009    0.00
    06/30/2016 14:50      28    52.5      9.20        89.7      91.4      65.9       5      10     114     133    1009    0.00
    06/30/2016 15:00      27    52.0      9.20        89.5      91.4      65.9       4       9     123      92    1009    0.00
    06/30/2016 15:10      26    50.1      9.20        89.4      91.4      65.9       6      13      88      89    1008    0.00
    06/30/2016 15:20      26    50.3      9.20        89.0      91.4      65.9       6      10      92      97    1008    0.00
    06/30/2016 15:30      28    50.9      9.20        89.4      91.4      65.9       5      12      99      93    1008    0.00
    06/30/2016 15:40      27    51.3      9.20        89.2      91.4      65.9       4      11     103      80    1008    0.00
    06/30/2016 15:50      28    51.5      9.20        88.8      91.4      65.9       5      10      88      79    1008    0.00
    06/30/2016 16:00      29    51.7      9.20        88.7      91.4      65.9       4      10      97     138    1008    0.00
    06/30/2016 16:10      29    51.6      9.20        88.7      91.4      65.9       5       9      98     101    1008    0.00
    06/30/2016 16:20      29    52.2      9.20        88.5      91.4      65.9       4      10     112      75    1008    0.00
    06/30/2016 16:30      29    52.4      9.20        89.0      91.4      65.9       3      10     123     165    1008    0.00
    06/30/2016 16:40      26    51.6      9.20        88.8      91.4      65.9       3       6     142     173    1008    0.00
    06/30/2016 16:50      28    50.0      9.20        88.3      91.4      65.9       4       9     124      86    1008    0.00
    06/30/2016 17:00      29    51.0      9.20        87.3      91.4      65.9       5      10     141     136    1008    0.00
    06/30/2016 17:10      30    50.8      9.20        87.0      91.4      65.9       4       9     111      79    1008    0.00
    06/30/2016 17:20      31    51.3      9.20        86.0      91.4      65.9       4      11     102      96    1008    0.00
    06/30/2016 17:30      31    51.3      9.20        84.9      91.4      65.9       3       9     105      97    1008    0.00
    06/30/2016 17:40      31    50.6      9.20        84.4      91.4      65.9       3       7     102      94    1008    0.00
    06/30/2016 17:50      31    50.3      9.20        83.6      91.4      65.9       3       9      98     113    1008    0.00
    06/30/2016 18:00      32    50.2      9.20        82.6      91.4      65.9       4       7      87      70    1008    0.00
    06/30/2016 18:10      34    50.2      9.20        82.1      91.4      65.9       3       6      76     112    1008    0.00
    06/30/2016 18:20      35    51.0      9.20        81.9      91.4      65.9       4       6      90      73    1008    0.00
    06/30/2016 18:30      38    52.3      9.20        81.6      91.4      65.9       4       7      91      90    1008    0.00
    06/30/2016 18:40      40    53.7      9.20        81.1      91.4      65.9       4       7      94      73    1008    0.00
    06/30/2016 18:50      42    54.1      9.20        80.7      91.4      65.9       3       7     103      89    1008    0.00
    06/30/2016 19:00      46    55.7      9.20        79.3      91.4      65.9       5       9      82      66    1008    0.00
    06/30/2016 19:10      48    56.0      9.20        77.9      91.4      65.9       3       8     100      84    1009    0.00
    06/30/2016 19:20      50    56.2      9.20        76.6      91.4      65.9       5      10      78      96    1009    0.00
    06/30/2016 19:30      54    56.6      9.20        75.3      91.4      65.9       6       9      75      74    1009    0.00
    06/30/2016 19:40      57    57.5      9.20        74.4      91.4      65.9       5      10      76      78    1009    0.00
    06/30/2016 19:50      58    57.9      9.20        73.7      91.4      65.9       5      10      83      80    1009    0.00
    06/30/2016 20:00      59    58.0      9.20        73.3      91.4      65.9       3       7      96     104    1009    0.00
    06/30/2016 20:10      62    58.2      9.20        72.7      91.4      65.9       4       8      80      90    1009    0.00
    06/30/2016 20:20      63    58.5      9.20        72.1      91.4      65.9       4       8      73      82    1010    0.00
    06/30/2016 20:30      64    58.6      9.20        71.7      91.4      65.9       4       8      74      70    1010    0.00
    06/30/2016 20:40      65    58.6      9.20        71.2      91.4      65.9       4       7      72      34    1010    0.00
    06/30/2016 20:50      65    58.5      9.20        71.0      91.4      65.9       4       7      83      78    1010    0.00
    06/30/2016 21:00      65    58.4      9.20        70.8      91.4      65.9       3       7      84      71    1010    0.00
    06/30/2016 21:10      66    58.4      9.20        70.6      91.4      65.9       3       6      85      80    1010    0.00
    06/30/2016 21:20      66    58.4      9.20        70.4      91.4      65.9       3       6      95      72    1011    0.00
    06/30/2016 21:30      67    58.4      9.20        70.2      91.4      65.9       3       7      86      64    1011    0.00
    06/30/2016 21:40      68    58.4      9.20        69.7      91.4      65.9       4       8      94     103    1011    0.00
    06/30/2016 21:50      69    58.4      9.20        69.2      91.4      65.9       4       7      96      79    1011    0.00
    06/30/2016 22:00      71    58.5      9.20        68.7      91.4      65.9       2       6     113      79    1011    0.00
    06/30/2016 22:10      72    58.6      9.20        68.1      91.4      65.9       2       4     112     100    1011    0.00
    06/30/2016 22:20      72    58.5      9.20        67.8      91.4      65.9       2       5     114      93    1011    0.00
    06/30/2016 22:30      73    58.3      9.20        67.2      91.4      65.9       1       6     106      95    1011    0.00
    06/30/2016 22:40      74    58.3      9.20        67.0      91.4      65.9       1       4     116      87    1011    0.00
    06/30/2016 22:50      75    58.3      9.20        66.7      91.4      65.9       2       6      97      86    1011    0.00
    06/30/2016 23:00      76    58.5      9.20        66.4      91.4      65.9       3       5      89      90    1011    0.00
    06/30/2016 23:10      76    58.4      9.20        66.2      91.4      65.9       3       5      80      81    1011    0.00
    06/30/2016 23:20      76    58.3      9.20        66.1      91.4      65.9       2       4      74      43    1011    0.00
    06/30/2016 23:30      76    58.2      9.20        66.0      91.4      65.7       0       3      77      82    1011    0.00
    06/30/2016 23:40      76    58.1      9.20        65.8      91.4      65.6       1       3      76      75    1011    0.00
    06/30/2016 23:50      77    58.1      9.20        65.7      91.4      65.5       1       3     106     146    1010    0.00
    07/01/2016 00:00      77    58.2      9.20        65.7      91.4      65.5       1       3     122      98    1010    0.00
    07/01/2016 00:10      77    58.1      9.20        65.5      65.8      65.3       1       4     112     130    1011    0.00
    07/01/2016 00:20      78    58.1      9.20        65.3      65.8      65.0       2       7     130     137    1011    0.00
    07/01/2016 00:30      79    58.0      9.20        65.0      65.8      64.7       2       6     118     142    1011    0.00
    07/01/2016 00:40      79    58.0      9.20        64.7      65.8      64.5       3       7      98      76    1011    0.00
    07/01/2016 00:50      79    58.0      9.20        64.6      65.8      64.3       2       5      97      94    1011    0.00
    07/01/2016 01:00      80    57.9      9.20        64.4      65.8      64.2       2       5      87      65    1011    0.00
    07/01/2016 01:10      80    58.0      9.20        64.3      65.8      64.0       2       4     111     138    1011    0.00
    07/01/2016 01:20      81    58.1      9.20        64.2      65.8      64.0       0       5     128     122    1011    0.00
    07/01/2016 01:30      80    58.3      9.20        64.4      65.8      64.0       2       5     122     114    1011    0.00
    07/01/2016 01:40      80    58.2      9.20        64.4      65.8      64.0       3       6      95      91    1011    0.00
    07/01/2016 01:50      81    58.1      9.20        64.1      65.8      64.0       2       5      61      57    1011    0.00
    07/01/2016 02:00      81    58.2      9.20        64.2      65.8      63.9       0       2      82      96    1011    0.00
    07/01/2016 02:10      80    58.2      9.20        64.3      65.8      63.9       0       2      42      46    1011    0.00
    07/01/2016 02:20      80    58.1      9.20        64.2      65.8      63.9       0       3     100      94    1011    0.00
    07/01/2016 02:30      80    58.1      9.20        64.4      65.8      63.9       1       4     111      90    1011    0.00
    07/01/2016 02:40      79    58.1      9.20        64.5      65.8      63.9       2       3     131     161    1011    0.00
    07/01/2016 02:50      80    58.0      9.20        64.3      65.8      63.9       2       5     146     147    1011    0.00
    07/01/2016 03:00      80    58.0      9.20        64.2      65.8      63.9       1       3     100      70    1011    0.00
    07/01/2016 03:10      81    58.0      9.20        64.0      65.8      63.9       0       3     142     100    1011    0.00
    07/01/2016 03:20      81    58.1      9.20        64.0      65.8      63.8       0       2     135     149    1011    0.00
    07/01/2016 03:30      81    58.2      9.20        64.1      65.8      63.8       0       2      59      22    1011    0.00
    07/01/2016 03:40      81    58.2      9.20        64.2      65.8      63.8       2       4      70      61    1011    0.00
    07/01/2016 03:50      80    58.0      9.20        64.1      65.8      63.8       0       1     102      85    1011    0.00
    07/01/2016 04:00      81    57.9      9.20        63.9      65.8      63.7       0       0     141     134    1011    0.00
    07/01/2016 04:10      81    58.1      9.20        64.0      65.8      63.7       0       2      49      62    1011    0.00
    07/01/2016 04:20      81    58.2      9.20        64.2      65.8      63.7       0       1      48      47    1011    0.00
    07/01/2016 04:30      80    58.2      9.20        64.4      65.8      63.7       0       3      41      29    1011    0.00
    07/01/2016 04:40      80    58.3      9.20        64.5      65.8      63.7       2       3      59      36    1011    0.00
    07/01/2016 04:50      80    58.4      9.20        64.7      65.8      63.7       2       4      63      56    1011    0.00
    07/01/2016 05:00      80    58.5      9.20        64.8      65.8      63.7       2       4      60      46    1011    0.00
    07/01/2016 05:10      80    58.4      9.20        64.7      65.8      63.7       0       1      23     354    1011    0.00
    07/01/2016 05:20      80    58.4      9.20        64.8      65.8      63.7       0       2      37      39    1011    0.00
    07/01/2016 05:30      79    58.4      9.20        64.9      65.8      63.7       0       2       5     316    1011    0.00
    07/01/2016 05:40      79    58.2      9.20        64.9      65.8      63.7       0       1     206     176    1011    0.00
    07/01/2016 05:50      79    58.3      9.20        65.0      65.8      63.7       0       2     268     246    1011    0.00
    07/01/2016 06:00      78    58.3      9.20        65.3      65.8      63.7       0       1     233     241    1011    0.00
    07/01/2016 06:10      76    58.5      9.20        66.0      66.4      63.7       0       1      18      41    1011    0.00
    07/01/2016 06:20      73    58.4      9.20        66.7      67.2      63.7       0       3      69      70    1011    0.00
    07/01/2016 06:30      72    58.2      9.20        67.3      67.7      63.7       0       3      98      83    1011    0.00
    07/01/2016 06:40      71    58.2      9.20        67.7      68.2      63.7       0       1     237     221    1012    0.00
    07/01/2016 06:50      70    58.5      9.20        68.4      68.9      63.7       1       4     124     163    1012    0.00
    07/01/2016 07:00      69    58.4      9.20        68.4      69.1      63.7       0       3     172     198    1012    0.00
    07/01/2016 07:10      68    58.5      9.20        69.4      69.9      63.7       2       4     170     171    1012    0.00
    07/01/2016 07:20      66    58.5      9.20        69.5      70.5      63.7       2       6     122     100    1012    0.00
    07/01/2016 07:30      67    58.5      9.20        70.3      70.8      63.7       2       4      68      36    1012    0.00
    07/01/2016 07:40      62    58.5      9.20        71.3      72.0      63.7       2       5     144     139    1012    0.00
    07/01/2016 07:50      62    58.1      9.20        71.8      72.2      63.7       3       6     115      73    1012    0.00
    07/01/2016 08:00      60    58.3      9.20        72.4      73.1      63.7       2       6      59     106    1012    0.00
    07/01/2016 08:10      59    58.3      9.20        73.1      73.6      63.7       3       5     108     100    1012    0.00
    07/01/2016 08:20      60    58.3      9.20        73.5      73.8      63.7       2       5      96      98    1012    0.00
    07/01/2016 08:30      62    59.0      9.20        73.1      73.8      63.7       4       6     151     186    1012    0.00
    07/01/2016 08:40      59    59.1      9.20        73.7      74.7      63.7       3       6     111     113    1012    0.00
    07/01/2016 08:50      59    59.1      9.20        74.5      74.8      63.7       3       7     108     187    1012    0.00
    07/01/2016 09:00      60    59.3      9.20        74.7      75.1      63.7       3       6     132     153    1012    0.00
    07/01/2016 09:10      57    59.4      9.20        75.1      75.9      63.7       2       6     187     172    1012    0.00
    07/01/2016 09:20      56    59.4      9.20        76.2      76.7      63.7       3       6     142     133    1012    0.00
    07/01/2016 09:30      53    59.4      9.20        76.7      77.3      63.7       2       6     120     157    1012    0.00
    07/01/2016 09:40      53    59.3      9.20        77.7      78.5      63.7       3       7      99      81    1012    0.00
    07/01/2016 09:50      53    59.5      9.20        78.3      79.3      63.7       3       5     117     178    1012    0.00
    07/01/2016 10:00      52    59.5      9.20        78.8      79.3      63.7       4       8     120     159    1012    0.00
    07/01/2016 10:10      50    59.5      9.20        79.3      80.0      63.7       4      10     148     173    1012    0.00
    07/01/2016 10:20      50    59.2      9.20        79.5      80.3      63.7       4       7     132     161    1012    0.00
    07/01/2016 10:30      47    59.1      9.20        80.9      81.6      63.7       4       9     124     166    1012    0.00
    07/01/2016 10:40      47    58.8      9.20        80.4      81.6      63.7       4       8     139     150    1012    0.00
    07/01/2016 10:50      46    58.9      9.20        81.3      81.7      63.7       3       7     146     156    1012    0.00
    07/01/2016 11:00      48    58.7      9.20        80.9      81.7      63.7       4       9     139      91    1012    0.00
    07/01/2016 11:10      46    58.0      9.20        82.2      82.7      63.7       4      11     118      81    1012    0.00
    07/01/2016 11:20      42    58.0      9.20        82.1      82.7      63.7       5      12     143     171    1012    0.00
    07/01/2016 11:30      42    57.2      9.20        82.8      83.5      63.7       3       9     139     183    1012    0.00
    07/01/2016 11:40      44    58.4      9.20        83.4      84.1      63.7       5       9     152     172    1012    0.00
    07/01/2016 11:50      43    57.8      9.20        82.4      84.1      63.7       4      10     117     136    1012    0.00
    07/01/2016 12:00      42    58.2      9.20        83.0      84.1      63.7       5      10     139     168    1012    0.00
    07/01/2016 12:10      42    57.9      9.20        83.7      84.2      63.7       5      11     127     135    1012    0.00
    07/01/2016 12:20      41    58.2      9.20        83.2      84.2      63.7       5      12     149     149    1012    0.00
    07/01/2016 12:30      41    57.9      9.20        83.0      84.2      63.7       6      13     144     160    1012    0.00
    07/01/2016 12:40      42    58.2      9.20        82.9      84.2      63.7       5      15     144     172    1012    0.00
    07/01/2016 12:50      41    58.1      9.20        83.4      84.2      63.7       5      10     131      97    1011    0.00
    07/01/2016 13:00      41    58.0      9.20        83.9      84.7      63.7       4       7     133     144    1011    0.00
    07/01/2016 13:10      41    57.6      9.20        83.8      84.7      63.7       4      10     111      90    1011    0.00
    07/01/2016 13:20      42    57.4      9.20        83.7      84.7      63.7       4       9     128     145    1011    0.00
    07/01/2016 13:30      39    58.0      9.20        84.7      85.3      63.7       4       9     129      90    1011    0.00
    07/01/2016 13:40      41    57.7      9.20        84.0      85.3      63.7       7      12     138     168    1011    0.00
    07/01/2016 13:50      38    57.6      9.20        84.3      85.3      63.7       4      10     135     143    1011    0.00
    07/01/2016 14:00      40    57.3      9.20        84.8      85.3      63.7       5       9     145     156    1011    0.00
    07/01/2016 14:10      39    56.9      9.20        84.6      85.3      63.7       5      11     138     171    1011    0.00
    07/01/2016 14:20      39    57.1      9.20        84.6      85.3      63.7       5      11     154     133    1011    0.00
    07/01/2016 14:30      38    56.9      9.20        84.3      85.3      63.7       5       9     143     160    1011    0.00
    07/01/2016 14:40      38    56.1      9.20        84.3      85.3      63.7       5      10     113     166    1011    0.00
    07/01/2016 14:50      38    56.0      9.20        84.5      85.3      63.7       5      10     138     156    1011    0.00
    07/01/2016 15:00      37    55.9      9.20        84.5      85.3      63.7       5       9     137     140    1011    0.00
    07/01/2016 15:10      39    55.8      9.20        84.5      85.3      63.7       4       9     127     152    1010    0.00
    07/01/2016 15:20      38    56.1      9.20        84.4      85.3      63.7       5      10     143     150    1010    0.00
    07/01/2016 15:30      39    55.5      9.20        83.8      85.3      63.7       5      11     106      65    1010    0.00
    07/01/2016 15:40      40    55.8      9.20        83.7      85.3      63.7       5      10     128     144    1010    0.00
    07/01/2016 15:50      40    56.1      9.20        83.7      85.3      63.7       5      11     118      88    1010    0.00
    07/01/2016 16:00      42    56.5      9.20        82.7      85.3      63.7       5      11     114     138    1010    0.00
    07/01/2016 16:10      42    56.9      9.20        82.7      85.3      63.7       6      11     140     154    1010    0.00
    07/01/2016 16:20      43    57.1      9.20        82.4      85.3      63.7       6      12     136     131    1010    0.00